Time;durP1;ratioP1;P1;durP2;ratioP2;P2;SDS_P1;SDS_P2;PMS_P1;PMS_P2;Temp;Humidity;BMP_temperature;BMP_pressure;BME280_temperature;BME280_humidity;BME280_pressure;Samples;Min_cycle;Max_cycle;Signal;HPM_P1;HPM_P2
2023/08/29 00:02:11;;;;;;;2.10;1.80;;;;;;;;;;5036162;28;20275;-84
2023/08/29 00:04:37;;;;;;;2.60;2.20;;;;;;;;;;5034205;28;20239;-85
2023/08/29 00:07:03;;;;;;;3.00;2.27;;;;;;;;;;5026080;28;20226;-85
2023/08/29 00:09:29;;;;;;;2.30;2.10;;;;;;;;;;5033627;28;20230;-85
2023/08/29 00:11:56;;;;;;;2.17;1.83;;;;;;;;;;5029464;28;20219;-85
2023/08/29 00:14:21;;;;;;;2.30;2.00;;;;;;;;;;5020690;28;20223;-85
2023/08/29 00:16:49;;;;;;;6.10;2.10;;;;;;;;;;5031060;28;20572;-85
2023/08/29 00:19:15;;;;;;;3.57;2.20;;;;;;;;;;5045373;28;20215;-83
2023/08/29 00:21:41;;;;;;;2.40;2.00;;;;;;;;;;5018859;28;20222;-87
2023/08/29 00:24:09;;;;;;;2.43;2.23;;;;;;;;;;5012629;28;20219;-87
2023/08/29 00:26:37;;;;;;;1.73;1.63;;;;;;;;;;5013289;28;20231;-87
2023/08/29 00:29:03;;;;;;;2.00;1.80;;;;;;;;;;4999522;28;20232;-88
2023/08/29 00:31:28;;;;;;;1.80;1.70;;;;;;;;;;5019694;28;20276;-87
2023/08/29 00:33:54;;;;;;;2.27;2.07;;;;;;;;;;5023331;28;20229;-87
2023/08/29 00:36:23;;;;;;;1.53;1.43;;;;;;;;;;5018980;28;20602;-87
2023/08/29 00:38:53;;;;;;;5.27;1.70;;;;;;;;;;5013977;28;20707;-87
2023/08/29 00:41:20;;;;;;;1.83;1.73;;;;;;;;;;5021164;28;20215;-86
2023/08/29 00:43:45;;;;;;;2.17;1.97;;;;;;;;;;5016482;28;20277;-87
2023/08/29 00:46:15;;;;;;;1.40;1.30;;;;;;;;;;5014626;28;20219;-86
2023/08/29 00:48:41;;;;;;;1.57;1.47;;;;;;;;;;5013844;28;20227;-86
2023/08/29 00:51:07;;;;;;;1.70;1.60;;;;;;;;;;5018753;28;20234;-86
2023/08/29 00:53:32;;;;;;;2.20;1.80;;;;;;;;;;5019484;28;20219;-86
2023/08/29 00:56:00;;;;;;;2.13;1.93;;;;;;;;;;5016648;28;20253;-86
2023/08/29 00:58:26;;;;;;;2.27;2.07;;;;;;;;;;5021181;28;20644;-86
2023/08/29 01:00:52;;;;;;;2.50;2.27;;;;;;;;;;5036138;28;20218;-86
2023/08/29 01:03:18;;;;;;;3.53;2.47;;;;;;;;;;5054725;28;20217;-86
2023/08/29 01:05:43;;;;;;;2.70;2.50;;;;;;;;;;5029094;28;20284;-87
2023/08/29 01:08:11;;;;;;;2.50;2.30;;;;;;;;;;4999209;28;20714;-86
2023/08/29 01:10:51;;;;;;;3.23;2.20;;;;;;;;;;5004789;28;20227;-87
2023/08/29 01:13:38;;;;;;;1.80;1.70;;;;;;;;;;5036932;28;20223;-87
2023/08/29 01:16:05;;;;;;;1.97;1.87;;;;;;;;;;5052692;28;20242;-87
2023/08/29 01:18:33;;;;;;;2.70;1.90;;;;;;;;;;5042516;28;20305;-86
2023/08/29 01:21:46;;;;;;;2.77;2.00;;;;;;;;;;5018446;28;20238;-87
2023/08/29 01:24:25;;;;;;;2.20;2.00;;;;;;;;;;4968599;28;20213;-86
2023/08/29 01:26:50;;;;;;;3.60;2.23;;;;;;;;;;5040220;28;20231;-87
2023/08/29 01:29:16;;;;;;;1.90;1.80;;;;;;;;;;5040406;28;20218;-87
2023/08/29 01:31:41;;;;;;;2.33;2.13;;;;;;;;;;5038960;28;20631;-86
2023/08/29 01:34:08;;;;;;;2.70;2.13;;;;;;;;;;5004613;28;20281;-86
2023/08/29 01:36:41;;;;;;;2.00;1.67;;;;;;;;;;5035341;28;20223;-87
2023/08/29 01:39:07;;;;;;;2.27;2.07;;;;;;;;;;5017693;28;20246;-87
2023/08/29 01:41:32;;;;;;;2.27;1.83;;;;;;;;;;5049861;28;20225;-86
2023/08/29 01:43:58;;;;;;;2.30;1.80;;;;;;;;;;5069330;28;20230;-86
2023/08/29 01:46:24;;;;;;;1.37;1.37;;;;;;;;;;5044696;28;20235;-86
2023/08/29 01:48:52;;;;;;;1.97;1.50;;;;;;;;;;5049007;28;20237;-86
2023/08/29 01:51:18;;;;;;;1.83;1.73;;;;;;;;;;5039560;28;20215;-87
2023/08/29 01:53:44;;;;;;;1.90;1.80;;;;;;;;;;5016157;28;20231;-86
2023/08/29 01:56:14;;;;;;;3.07;1.80;;;;;;;;;;5024304;28;20234;-86
2023/08/29 01:58:40;;;;;;;2.77;2.13;;;;;;;;;;5002960;28;20302;-87
2023/08/29 02:01:08;;;;;;;1.30;1.30;;;;;;;;;;5029877;28;20211;-87
2023/08/29 02:03:34;;;;;;;1.80;1.70;;;;;;;;;;5034227;28;20246;-87
2023/08/29 02:06:01;;;;;;;1.40;1.30;;;;;;;;;;5038274;28;20855;-86
2023/08/29 02:08:29;;;;;;;2.90;1.67;;;;;;;;;;5020810;28;20230;-86
2023/08/29 02:10:55;;;;;;;1.87;1.77;;;;;;;;;;5032172;28;20239;-86
2023/08/29 02:13:20;;;;;;;1.70;1.60;;;;;;;;;;5032647;28;20624;-86
2023/08/29 02:15:51;;;;;;;1.57;1.47;;;;;;;;;;5020556;28;20855;-86
2023/08/29 02:18:18;;;;;;;1.70;1.60;;;;;;;;;;5013932;28;20776;-87
2023/08/29 02:20:44;;;;;;;2.07;1.70;;;;;;;;;;5016941;28;20718;-86
2023/08/29 02:23:09;;;;;;;1.60;1.50;;;;;;;;;;5030046;28;20230;-86
2023/08/29 02:25:35;;;;;;;1.47;1.37;;;;;;;;;;5014217;28;20239;-86
2023/08/29 02:28:03;;;;;;;2.10;1.33;;;;;;;;;;5050910;28;20215;-86
2023/08/29 02:30:29;;;;;;;2.00;1.73;;;;;;;;;;5020966;28;20242;-86
2023/08/29 02:32:54;;;;;;;1.90;1.80;;;;;;;;;;5020039;28;20862;-86
2023/08/29 02:35:20;;;;;;;2.13;1.90;;;;;;;;;;5050915;28;20590;-86
2023/08/29 02:37:45;;;;;;;2.07;1.57;;;;;;;;;;5000793;28;20230;-85
2023/08/29 02:40:11;;;;;;;1.87;1.77;;;;;;;;;;5004285;28;20710;-85
2023/08/29 02:42:37;;;;;;;1.70;1.60;;;;;;;;;;5037515;28;20230;-86
2023/08/29 02:45:03;;;;;;;3.77;2.00;;;;;;;;;;5034310;28;20219;-86
2023/08/29 02:47:31;;;;;;;2.27;1.97;;;;;;;;;;5023535;28;20235;-86
2023/08/29 02:49:56;;;;;;;2.43;1.97;;;;;;;;;;5016636;28;20606;-86
2023/08/29 02:52:22;;;;;;;1.93;1.60;;;;;;;;;;5035891;28;20945;-86
2023/08/29 02:54:47;;;;;;;1.97;1.80;;;;;;;;;;5028587;28;20231;-86
2023/08/29 02:57:15;;;;;;;1.63;1.53;;;;;;;;;;5017153;28;20225;-87
2023/08/29 02:59:43;;;;;;;2.90;1.80;;;;;;;;;;5040177;28;20226;-87
2023/08/29 03:02:08;;;;;;;2.03;1.83;;;;;;;;;;5025897;28;20223;-86
2023/08/29 03:04:36;;;;;;;2.10;1.90;;;;;;;;;;5022890;28;20253;-87
2023/08/29 03:07:04;;;;;;;2.13;1.93;;;;;;;;;;5027064;28;20227;-86
2023/08/29 03:09:30;;;;;;;2.23;2.03;;;;;;;;;;5028753;28;20234;-86
2023/08/29 03:12:00;;;;;;;2.00;1.90;;;;;;;;;;5019917;28;20292;-86
2023/08/29 03:14:27;;;;;;;2.13;1.93;;;;;;;;;;5023530;28;20231;-86
2023/08/29 03:16:53;;;;;;;9.27;2.10;;;;;;;;;;5023546;28;20214;-87
2023/08/29 03:19:21;;;;;;;2.67;2.30;;;;;;;;;;5006349;28;20226;-86
2023/08/29 03:21:47;;;;;;;2.70;2.50;;;;;;;;;;5013812;28;20663;-86
2023/08/29 03:24:12;;;;;;;2.63;2.17;;;;;;;;;;5039354;28;20219;-86
2023/08/29 03:26:38;;;;;;;2.00;1.90;;;;;;;;;;5008964;28;20226;-87
2023/08/29 03:29:06;;;;;;;2.47;2.33;;;;;;;;;;5041132;28;20218;-86
2023/08/29 03:31:34;;;;;;;3.40;2.77;;;;;;;;;;5022429;28;20208;-86
2023/08/29 03:34:02;;;;;;;4.17;2.90;;;;;;;;;;5035524;28;20234;-87
2023/08/29 03:36:27;;;;;;;3.50;2.90;;;;;;;;;;5003429;28;20227;-87
2023/08/29 03:38:53;;;;;;;3.47;3.13;;;;;;;;;;5021724;28;20226;-86
2023/08/29 03:41:21;;;;;;;3.60;3.30;;;;;;;;;;5021194;28;20709;-86
2023/08/29 03:43:48;;;;;;;3.20;3.00;;;;;;;;;;5036642;28;20227;-86
2023/08/29 03:46:13;;;;;;;4.47;3.20;;;;;;;;;;5037678;28;20227;-87
2023/08/29 03:48:41;;;;;;;2.97;2.77;;;;;;;;;;5027386;28;20230;-87
2023/08/29 03:51:09;;;;;;;3.07;2.73;;;;;;;;;;5004116;28;20629;-87
2023/08/29 03:53:36;;;;;;;2.90;2.70;;;;;;;;;;5057029;28;20243;-87
2023/08/29 03:56:06;;;;;;;2.57;2.37;;;;;;;;;;5021267;28;20263;-86
2023/08/29 03:58:31;;;;;;;3.07;2.40;;;;;;;;;;5017959;28;20231;-87
2023/08/29 04:04:44;;;;;;;2.57;2.37;;;;;;;;;;5065182;28;20230;-85
2023/08/29 04:07:12;;;;;;;3.40;3.10;;;;;;;;;;5020957;28;20265;-86
2023/08/29 04:09:40;;;;;;;2.80;2.60;;;;;;;;;;5022511;28;20272;-85
2023/08/29 04:12:10;;;;;;;2.57;2.37;;;;;;;;;;5018779;28;20215;-86
2023/08/29 04:14:38;;;;;;;4.27;3.60;;;;;;;;;;5036732;28;20379;-87
2023/08/29 04:17:06;;;;;;;2.63;2.43;;;;;;;;;;5007835;28;20222;-85
2023/08/29 04:19:32;;;;;;;2.27;2.17;;;;;;;;;;5028446;28;20222;-85
2023/08/29 04:21:57;;;;;;;2.97;2.50;;;;;;;;;;5029643;28;20218;-85
2023/08/29 04:24:25;;;;;;;2.70;2.30;;;;;;;;;;5041196;28;20219;-86
2023/08/29 04:26:53;;;;;;;2.80;2.60;;;;;;;;;;5058788;28;20306;-85
2023/08/29 04:29:19;;;;;;;2.70;2.50;;;;;;;;;;5040808;28;20266;-86
2023/08/29 04:31:47;;;;;;;2.70;2.50;;;;;;;;;;5027186;28;20303;-86
2023/08/29 04:34:17;;;;;;;3.23;3.03;;;;;;;;;;5032544;28;20860;-87
2023/08/29 04:36:47;;;;;;;2.90;2.60;;;;;;;;;;5027768;28;20714;-86
2023/08/29 04:39:15;;;;;;;3.30;3.10;;;;;;;;;;5022434;28;20310;-86
2023/08/29 04:41:45;;;;;;;3.60;3.30;;;;;;;;;;5050590;28;20238;-87
2023/08/29 04:44:11;;;;;;;3.70;3.40;;;;;;;;;;5022157;28;20302;-85
2023/08/29 04:46:40;;;;;;;4.30;3.90;;;;;;;;;;5035437;28;20674;-86
2023/08/29 04:49:05;;;;;;;5.03;3.83;;;;;;;;;;5016138;28;20688;-85
2023/08/29 04:51:31;;;;;;;4.00;3.70;;;;;;;;;;5038699;28;20218;-85
2023/08/29 04:53:57;;;;;;;11.53;10.53;;;;;;;;;;5024512;28;20224;-86
2023/08/29 04:56:25;;;;;;;5.43;4.93;;;;;;;;;;5020510;28;20498;-86
2023/08/29 04:58:51;;;;;;;4.80;4.40;;;;;;;;;;5017568;28;20234;-86
2023/08/29 05:01:21;;;;;;;4.57;4.20;;;;;;;;;;5039363;28;20668;-82
2023/08/29 05:03:49;;;;;;;4.53;4.13;;;;;;;;;;5001474;28;20238;-83
2023/08/29 05:06:17;;;;;;;5.00;4.70;;;;;;;;;;5016611;28;20222;-83
2023/08/29 05:08:45;;;;;;;6.63;4.53;;;;;;;;;;5040102;28;20244;-82
2023/08/29 05:11:12;;;;;;;5.17;4.60;;;;;;;;;;5035131;28;20219;-86
2023/08/29 05:13:38;;;;;;;6.67;4.47;;;;;;;;;;5021576;28;20219;-85
2023/08/29 05:16:05;;;;;;;4.37;3.97;;;;;;;;;;5013965;28;20225;-87
2023/08/29 05:18:34;;;;;;;3.90;3.60;;;;;;;;;;5017155;28;20933;-87
2023/08/29 05:21:02;;;;;;;4.40;4.00;;;;;;;;;;5021300;28;20222;-87
2023/08/29 05:23:27;;;;;;;4.17;3.87;;;;;;;;;;5035038;28;20218;-88
2023/08/29 05:25:55;;;;;;;4.63;3.80;;;;;;;;;;5026158;28;20223;-86
2023/08/29 05:28:21;;;;;;;5.30;4.43;;;;;;;;;;5019254;28;20230;-87
2023/08/29 05:30:46;;;;;;;4.30;4.00;;;;;;;;;;5019416;28;20305;-86
2023/08/29 05:33:12;;;;;;;4.33;3.90;;;;;;;;;;5022689;28;20224;-87
2023/08/29 05:35:40;;;;;;;4.07;3.77;;;;;;;;;;5033441;28;20246;-86
2023/08/29 05:38:05;;;;;;;4.40;4.10;;;;;;;;;;5031459;28;20242;-87
2023/08/29 05:40:33;;;;;;;4.43;4.13;;;;;;;;;;5045410;28;20225;-86
2023/08/29 05:42:59;;;;;;;4.03;3.73;;;;;;;;;;4999747;28;20210;-87
2023/08/29 05:45:25;;;;;;;4.03;3.70;;;;;;;;;;5039087;28;20222;-87
2023/08/29 05:47:51;;;;;;;4.53;3.17;;;;;;;;;;5014248;28;20579;-87
2023/08/29 05:50:21;;;;;;;4.10;3.73;;;;;;;;;;5055665;28;20214;-87
2023/08/29 05:52:47;;;;;;;3.40;3.10;;;;;;;;;;5021664;28;20238;-87
2023/08/29 05:55:15;;;;;;;3.30;3.10;;;;;;;;;;5018183;28;20223;-87
2023/08/29 05:57:43;;;;;;;4.10;3.70;;;;;;;;;;5016863;28;20221;-86
2023/08/29 06:00:16;;;;;;;5.00;4.27;;;;;;;;;;5020500;28;20214;-87
2023/08/29 06:02:42;;;;;;;4.67;4.27;;;;;;;;;;5055065;28;20979;-86
2023/08/29 06:05:10;;;;;;;5.63;4.40;;;;;;;;;;5029107;28;20215;-87
2023/08/29 06:07:41;;;;;;;3.83;3.53;;;;;;;;;;5041177;28;20211;-87
2023/08/29 06:10:07;;;;;;;4.13;3.83;;;;;;;;;;5020782;28;20288;-87
2023/08/29 06:12:34;;;;;;;3.70;3.40;;;;;;;;;;5022536;28;20789;-87
2023/08/29 06:15:02;;;;;;;3.67;3.37;;;;;;;;;;5020352;28;20239;-86
2023/08/29 06:17:27;;;;;;;4.43;4.13;;;;;;;;;;5012047;28;20703;-88
2023/08/29 06:19:53;;;;;;;4.83;4.43;;;;;;;;;;5026563;28;20233;-87
2023/08/29 06:22:22;;;;;;;3.93;3.63;;;;;;;;;;5022071;28;20638;-86
2023/08/29 06:24:50;;;;;;;3.43;3.23;;;;;;;;;;5028646;28;20214;-87
2023/08/29 06:27:18;;;;;;;4.37;3.50;;;;;;;;;;5012128;28;20290;-88
2023/08/29 06:29:46;;;;;;;4.07;3.70;;;;;;;;;;5049176;28;20601;-87
2023/08/29 06:32:15;;;;;;;5.90;5.30;;;;;;;;;;5021513;28;20322;-86
2023/08/29 06:34:45;;;;;;;5.87;5.27;;;;;;;;;;5018471;28;21025;-87
2023/08/29 06:37:10;;;;;;;3.80;3.50;;;;;;;;;;5021295;28;20715;-87
2023/08/29 06:39:38;;;;;;;5.00;4.70;;;;;;;;;;5022790;28;20227;-86
2023/08/29 06:42:04;;;;;;;5.07;4.70;;;;;;;;;;5017630;28;21040;-86
2023/08/29 06:44:30;;;;;;;5.93;5.47;;;;;;;;;;5004265;28;20227;-88
2023/08/29 06:46:55;;;;;;;5.50;5.10;;;;;;;;;;5018483;28;20215;-87
2023/08/29 06:49:23;;;;;;;5.93;5.43;;;;;;;;;;5033280;28;20215;-86
2023/08/29 06:51:50;;;;;;;4.75;4.45;;;;;;;;;;5018988;28;20245;-87
2023/08/29 06:54:20;;;;;;;5.95;5.45;;;;;;;;;;5045264;28;20223;-87
2023/08/29 06:56:46;;;;;;;5.60;5.10;;;;;;;;;;5009406;28;20309;-86
2023/08/29 06:59:11;;;;;;;5.65;5.13;;;;;;;;;;5017566;28;20280;-86
2023/08/29 07:01:39;;;;;;;5.78;5.28;;;;;;;;;;5039406;28;20825;-86
2023/08/29 07:04:05;;;;;;;6.15;5.65;;;;;;;;;;5022375;28;20214;-87
2023/08/29 07:06:31;;;;;;;6.80;6.18;;;;;;;;;;5052284;28;20359;-87
2023/08/29 07:09:01;;;;;;;6.18;5.63;;;;;;;;;;5024429;28;20211;-87
2023/08/29 07:11:26;;;;;;;6.53;6.13;;;;;;;;;;5040938;28;20229;-86
2023/08/29 07:13:54;;;;;;;6.87;6.23;;;;;;;;;;5007789;28;20227;-87
2023/08/29 07:16:20;;;;;;;8.48;7.05;;;;;;;;;;5030778;28;20219;-86
2023/08/29 07:18:48;;;;;;;10.05;6.50;;;;;;;;;;5005782;28;20574;-86
2023/08/29 07:21:14;;;;;;;7.32;6.75;;;;;;;;;;5037964;28;20211;-87
2023/08/29 07:23:40;;;;;;;7.78;7.18;;;;;;;;;;5017912;28;20317;-87
2023/08/29 07:26:05;;;;;;;11.10;7.05;;;;;;;;;;5040915;28;20219;-86
2023/08/29 07:28:31;;;;;;;8.38;7.57;;;;;;;;;;5014236;28;20219;-88
2023/08/29 07:30:58;;;;;;;8.10;7.47;;;;;;;;;;5013934;28;20703;-88
2023/08/29 07:33:23;;;;;;;9.30;7.90;;;;;;;;;;5020823;28;20586;-87
2023/08/29 07:35:49;;;;;;;9.77;7.78;;;;;;;;;;5018422;28;20282;-88
2023/08/29 07:38:16;;;;;;;9.15;8.25;;;;;;;;;;5025502;28;20219;-86
2023/08/29 07:40:43;;;;;;;7.75;7.05;;;;;;;;;;5019140;28;20249;-88
2023/08/29 07:43:09;;;;;;;8.18;7.50;;;;;;;;;;5017479;28;20646;-86
2023/08/29 07:45:35;;;;;;;7.38;6.88;;;;;;;;;;4994305;28;20242;-87
2023/08/29 07:48:00;;;;;;;7.75;7.05;;;;;;;;;;5029424;28;20209;-85
2023/08/29 07:50:28;;;;;;;7.85;7.25;;;;;;;;;;5036304;28;20573;-89
2023/08/29 07:52:54;;;;;;;7.32;6.72;;;;;;;;;;5033740;28;20280;-87
2023/08/29 07:55:20;;;;;;;8.00;7.05;;;;;;;;;;5032565;28;20223;-87
2023/08/29 07:57:46;;;;;;;6.68;6.18;;;;;;;;;;5014471;28;20233;-88
2023/08/29 08:00:12;;;;;;;6.85;6.18;;;;;;;;;;5032178;28;20213;-87
2023/08/29 08:02:41;;;;;;;6.72;6.13;;;;;;;;;;5031357;28;20642;-88
2023/08/29 08:05:14;;;;;;;6.97;6.30;;;;;;;;;;5035498;28;20249;-88
2023/08/29 08:07:39;;;;;;;5.93;5.47;;;;;;;;;;5020128;28;20222;-87
2023/08/29 08:10:08;;;;;;;6.30;5.63;;;;;;;;;;5012426;28;20909;-86
2023/08/29 08:12:37;;;;;;;6.47;5.70;;;;;;;;;;5018802;28;20247;-88
2023/08/29 08:15:04;;;;;;;6.25;5.75;;;;;;;;;;5021921;28;20230;-87
2023/08/29 08:17:30;;;;;;;6.32;4.97;;;;;;;;;;5014978;28;20230;-89
2023/08/29 08:19:56;;;;;;;5.40;4.90;;;;;;;;;;5009925;28;20218;-88
2023/08/29 08:22:22;;;;;;;8.18;4.72;;;;;;;;;;5053058;28;20583;-89
2023/08/29 08:24:47;;;;;;;4.57;4.28;;;;;;;;;;5031377;28;20223;-88
2023/08/29 08:27:16;;;;;;;4.25;3.85;;;;;;;;;;5003747;28;20229;-87
2023/08/29 08:29:45;;;;;;;3.92;3.60;;;;;;;;;;5030909;28;20227;-85
2023/08/29 08:32:10;;;;;;;3.97;3.60;;;;;;;;;;5031764;28;20442;-86
2023/08/29 08:34:41;;;;;;;4.78;3.95;;;;;;;;;;5029862;28;20234;-86
2023/08/29 08:37:08;;;;;;;3.78;3.50;;;;;;;;;;5014191;28;20215;-86
2023/08/29 08:39:36;;;;;;;3.50;3.25;;;;;;;;;;5009936;28;20222;-86
2023/08/29 08:42:02;;;;;;;4.00;3.50;;;;;;;;;;5036711;28;20340;-87
2023/08/29 08:44:28;;;;;;;3.45;3.15;;;;;;;;;;5025622;28;20234;-87
2023/08/29 08:46:55;;;;;;;3.08;2.88;;;;;;;;;;5018933;28;20218;-87
2023/08/29 08:49:26;;;;;;;2.90;2.70;;;;;;;;;;5030134;28;20218;-86
2023/08/29 08:51:54;;;;;;;2.80;2.55;;;;;;;;;;5002982;28;20215;-87
2023/08/29 08:54:21;;;;;;;2.60;2.40;;;;;;;;;;5046149;28;20292;-87
2023/08/29 08:56:49;;;;;;;2.60;2.35;;;;;;;;;;5011967;28;20226;-87
2023/08/29 08:59:18;;;;;;;2.60;2.40;;;;;;;;;;4999676;28;20596;-86
2023/08/29 09:01:43;;;;;;;2.35;2.13;;;;;;;;;;5016726;28;20235;-88
2023/08/29 09:04:09;;;;;;;1.80;1.42;;;;;;;;;;5003477;28;20252;-87
2023/08/29 09:06:35;;;;;;;1.52;1.33;;;;;;;;;;5010246;28;20228;-89
2023/08/29 09:09:19;;;;;;;1.50;1.38;;;;;;;;;;5036342;28;20306;-88
2023/08/29 09:12:03;;;;;;;1.55;1.30;;;;;;;;;;5016894;28;20260;-88
2023/08/29 09:14:33;;;;;;;1.60;1.50;;;;;;;;;;5019466;28;20242;-85
2023/08/29 09:16:59;;;;;;;2.38;1.50;;;;;;;;;;5017681;28;20726;-86
2023/08/29 09:19:29;;;;;;;1.50;1.40;;;;;;;;;;5034924;28;20215;-88
2023/08/29 09:21:56;;;;;;;1.92;1.55;;;;;;;;;;5012177;28;20238;-87
2023/08/29 09:24:23;;;;;;;2.60;1.30;;;;;;;;;;5029266;28;20215;-88
2023/08/29 09:26:49;;;;;;;0.98;0.90;;;;;;;;;;5003151;28;20261;-87
2023/08/29 09:29:18;;;;;;;0.80;0.80;;;;;;;;;;5002760;28;20215;-86
2023/08/29 09:31:46;;;;;;;1.10;1.00;;;;;;;;;;5028461;28;20219;-84
2023/08/29 09:34:32;;;;;;;0.90;0.90;;;;;;;;;;5035188;28;20314;-86
2023/08/29 09:36:58;;;;;;;0.90;0.90;;;;;;;;;;5035245;28;20210;-86
2023/08/29 09:39:23;;;;;;;1.45;1.08;;;;;;;;;;5002732;28;20210;-86
2023/08/29 09:42:03;;;;;;;1.42;0.82;;;;;;;;;;5004675;28;20276;-88
2023/08/29 09:44:28;;;;;;;1.02;0.85;;;;;;;;;;5016859;28;20251;-85
2023/08/29 09:46:58;;;;;;;0.85;0.68;;;;;;;;;;5014791;28;20219;-84
2023/08/29 09:49:41;;;;;;;0.70;0.70;;;;;;;;;;5008950;28;20306;-86
2023/08/29 09:52:08;;;;;;;0.90;0.70;;;;;;;;;;5025117;28;20242;-88
2023/08/29 09:54:33;;;;;;;0.80;0.80;;;;;;;;;;5029514;28;20227;-88
2023/08/29 09:57:05;;;;;;;1.85;1.23;;;;;;;;;;5019312;28;20225;-88
2023/08/29 09:59:31;;;;;;;2.63;0.70;;;;;;;;;;5020652;28;20699;-87
2023/08/29 10:01:56;;;;;;;1.27;0.52;;;;;;;;;;5012100;28;20223;-87
2023/08/29 10:04:22;;;;;;;1.35;0.80;;;;;;;;;;5010898;28;20238;-88
2023/08/29 10:06:48;;;;;;;4.93;0.80;;;;;;;;;;5013179;28;20226;-87
2023/08/29 10:09:14;;;;;;;0.88;0.70;;;;;;;;;;5030479;28;20218;-86
2023/08/29 10:11:41;;;;;;;0.95;0.50;;;;;;;;;;5012752;28;20211;-85
2023/08/29 10:14:07;;;;;;;1.55;0.68;;;;;;;;;;5031552;28;20238;-88
2023/08/29 10:16:33;;;;;;;1.15;0.80;;;;;;;;;;5015425;28;20231;-88
2023/08/29 10:19:01;;;;;;;0.70;0.70;;;;;;;;;;5013130;28;20635;-87
2023/08/29 10:21:28;;;;;;;1.20;0.65;;;;;;;;;;5014979;28;20252;-86
2023/08/29 10:23:53;;;;;;;1.05;0.70;;;;;;;;;;5010709;28;20324;-86
2023/08/29 10:26:21;;;;;;;2.20;2.00;;;;;;;;;;5010158;28;20219;-87
2023/08/29 10:28:49;;;;;;;0.93;0.93;;;;;;;;;;5031186;28;20253;-88
2023/08/29 10:31:15;;;;;;;0.60;0.50;;;;;;;;;;5035546;28;20278;-87
2023/08/29 10:33:40;;;;;;;0.43;0.43;;;;;;;;;;5012295;28;20235;-87
2023/08/29 10:36:10;;;;;;;0.80;0.60;;;;;;;;;;5048099;28;20717;-86
2023/08/29 10:38:41;;;;;;;1.02;0.77;;;;;;;;;;5030371;28;20284;-86
2023/08/29 10:41:07;;;;;;;0.55;0.55;;;;;;;;;;5020590;28;20735;-89
2023/08/29 10:43:34;;;;;;;0.63;0.60;;;;;;;;;;5018008;28;20256;-88
2023/08/29 10:46:15;;;;;;;1.33;0.60;;;;;;;;;;4998691;28;20234;-88
2023/08/29 10:48:43;;;;;;;1.67;0.80;;;;;;;;;;5030503;28;20237;-87
2023/08/29 10:51:17;;;;;;;1.65;1.10;;;;;;;;;;5049841;28;20302;-87
2023/08/29 10:53:51;;;;;;;2.15;0.73;;;;;;;;;;5014661;28;20638;-87
2023/08/29 10:56:19;;;;;;;0.60;0.55;;;;;;;;;;5039214;28;20226;-87
2023/08/29 10:58:47;;;;;;;0.70;0.70;;;;;;;;;;5039915;28;20222;-87
2023/08/29 11:01:33;;;;;;;0.70;0.70;;;;;;;;;;5057773;28;20578;-87
2023/08/29 11:04:20;;;;;;;1.08;0.70;;;;;;;;;;5038640;28;20223;-87
2023/08/29 11:06:57;;;;;;;1.05;0.60;;;;;;;;;;5052280;28;20376;-89
2023/08/29 11:09:24;;;;;;;1.60;0.70;;;;;;;;;;5019150;28;20238;-87
2023/08/29 11:12:09;;;;;;;0.63;0.50;;;;;;;;;;5036768;28;20219;-88
2023/08/29 11:14:52;;;;;;;0.57;0.40;;;;;;;;;;5055996;28;20344;-88
2023/08/29 11:17:24;;;;;;;0.63;0.50;;;;;;;;;;5038924;28;20230;-89
2023/08/29 11:19:54;;;;;;;1.23;0.50;;;;;;;;;;5046698;28;20296;-87
2023/08/29 11:22:22;;;;;;;1.13;0.50;;;;;;;;;;5034799;28;20215;-87
2023/08/29 11:24:54;;;;;;;3.70;0.75;;;;;;;;;;5021893;28;20235;-88
2023/08/29 11:27:23;;;;;;;0.73;0.40;;;;;;;;;;5022096;28;20257;-89
2023/08/29 11:29:48;;;;;;;1.23;0.60;;;;;;;;;;5036168;28;20233;-87
2023/08/29 11:32:17;;;;;;;1.00;0.43;;;;;;;;;;4996806;28;20602;-89
2023/08/29 11:34:43;;;;;;;1.83;0.50;;;;;;;;;;5033286;28;20289;-88
2023/08/29 11:37:11;;;;;;;0.75;0.60;;;;;;;;;;5033841;28;20626;-88
2023/08/29 11:39:39;;;;;;;1.08;0.65;;;;;;;;;;5037870;28;20311;-87
2023/08/29 11:42:05;;;;;;;0.60;0.50;;;;;;;;;;5017962;28;20227;-87
2023/08/29 11:44:34;;;;;;;1.15;0.60;;;;;;;;;;5016548;28;20249;-88
2023/08/29 11:47:04;;;;;;;0.68;0.65;;;;;;;;;;5020810;28;20237;-86
2023/08/29 11:49:30;;;;;;;0.93;0.77;;;;;;;;;;5014735;28;20246;-89
2023/08/29 11:51:56;;;;;;;1.38;0.73;;;;;;;;;;5014439;28;20222;-86
2023/08/29 11:54:38;;;;;;;1.10;0.70;;;;;;;;;;5034638;28;20214;-87
2023/08/29 11:57:08;;;;;;;0.90;0.57;;;;;;;;;;5043094;28;20258;-86
2023/08/29 11:59:34;;;;;;;2.25;0.60;;;;;;;;;;5037452;28;20283;-86
2023/08/29 12:02:00;;;;;;;0.88;0.60;;;;;;;;;;5021507;28;20914;-87
2023/08/29 12:04:26;;;;;;;0.77;0.50;;;;;;;;;;5018621;28;20225;-86
2023/08/29 12:07:17;;;;;;;0.88;0.60;;;;;;;;;;5035446;28;20380;-88
2023/08/29 12:09:43;;;;;;;0.60;0.47;;;;;;;;;;5001062;28;20231;-86
2023/08/29 12:12:33;;;;;;;0.90;0.43;;;;;;;;;;5044402;28;20218;-86
2023/08/29 12:14:59;;;;;;;0.50;0.50;;;;;;;;;;5018133;28;20231;-87
2023/08/29 12:17:38;;;;;;;0.50;0.50;;;;;;;;;;5033328;28;20294;-87
2023/08/29 12:20:23;;;;;;;0.50;0.50;;;;;;;;;;5044514;28;20229;-87
2023/08/29 12:22:50;;;;;;;0.50;0.50;;;;;;;;;;5049327;28;20714;-87
2023/08/29 12:25:19;;;;;;;1.35;0.60;;;;;;;;;;5016690;28;20566;-86
2023/08/29 12:27:45;;;;;;;0.65;0.52;;;;;;;;;;5038535;28;20220;-86
2023/08/29 12:30:13;;;;;;;0.50;0.50;;;;;;;;;;5019988;28;20215;-87
2023/08/29 12:32:39;;;;;;;2.05;0.55;;;;;;;;;;5021570;28;20596;-86
2023/08/29 12:35:06;;;;;;;1.20;0.47;;;;;;;;;;5022118;28;20274;-86
2023/08/29 12:37:34;;;;;;;0.40;0.40;;;;;;;;;;5036895;28;20265;-85
2023/08/29 12:40:04;;;;;;;0.73;0.45;;;;;;;;;;5028003;28;20268;-87
2023/08/29 12:42:30;;;;;;;1.55;0.60;;;;;;;;;;5005098;28;20316;-86
2023/08/29 12:44:56;;;;;;;0.70;0.60;;;;;;;;;;5005674;28;20231;-88
2023/08/29 12:47:22;;;;;;;0.68;0.50;;;;;;;;;;5022386;28;20207;-87
2023/08/29 12:49:48;;;;;;;0.45;0.45;;;;;;;;;;5019317;28;20229;-87
2023/08/29 12:52:14;;;;;;;1.40;0.60;;;;;;;;;;5039177;28;20582;-87
2023/08/29 12:54:42;;;;;;;1.20;0.63;;;;;;;;;;5041452;28;20310;-87
2023/08/29 12:57:13;;;;;;;0.82;0.50;;;;;;;;;;5019837;28;20237;-86
2023/08/29 12:59:39;;;;;;;0.52;0.50;;;;;;;;;;5036546;28;20656;-87
2023/08/29 13:02:05;;;;;;;0.88;0.60;;;;;;;;;;5039491;28;20364;-87
2023/08/29 13:04:31;;;;;;;0.60;0.50;;;;;;;;;;5022996;28;20215;-87
2023/08/29 13:06:56;;;;;;;0.50;0.50;;;;;;;;;;5017794;28;20623;-86
2023/08/29 13:09:22;;;;;;;1.10;0.40;;;;;;;;;;5034690;28;20234;-87
2023/08/29 13:11:50;;;;;;;0.73;0.60;;;;;;;;;;5029425;28;20246;-87
2023/08/29 13:14:18;;;;;;;0.90;0.63;;;;;;;;;;5019845;28;20244;-86
2023/08/29 13:16:46;;;;;;;0.65;0.57;;;;;;;;;;5019544;28;20214;-86
2023/08/29 13:19:16;;;;;;;0.98;0.70;;;;;;;;;;5037568;28;20241;-86
2023/08/29 13:21:43;;;;;;;0.68;0.60;;;;;;;;;;5005738;28;20659;-86
2023/08/29 13:24:09;;;;;;;0.40;0.40;;;;;;;;;;5019192;28;20218;-86
2023/08/29 13:26:34;;;;;;;0.50;0.50;;;;;;;;;;5015803;28;20230;-86
2023/08/29 13:29:01;;;;;;;1.75;0.60;;;;;;;;;;5004868;28;20227;-86
2023/08/29 13:31:26;;;;;;;0.50;0.50;;;;;;;;;;5007139;28;20231;-86
2023/08/29 13:33:55;;;;;;;0.50;0.50;;;;;;;;;;5010383;28;20256;-86
2023/08/29 13:36:20;;;;;;;1.10;0.70;;;;;;;;;;5021009;28;20254;-86
2023/08/29 13:38:46;;;;;;;1.88;0.73;;;;;;;;;;5019573;28;20250;-87
2023/08/29 13:41:12;;;;;;;0.68;0.68;;;;;;;;;;5030997;28;20208;-86
2023/08/29 13:43:37;;;;;;;1.38;0.57;;;;;;;;;;5037784;28;20991;-87
2023/08/29 13:46:03;;;;;;;0.88;0.63;;;;;;;;;;5034618;28;20222;-86
2023/08/29 13:48:29;;;;;;;1.30;0.63;;;;;;;;;;5024376;28;20226;-86
2023/08/29 13:50:55;;;;;;;0.75;0.40;;;;;;;;;;5022780;28;20213;-86
2023/08/29 13:53:20;;;;;;;18.08;1.98;;;;;;;;;;5014176;28;20870;-88
2023/08/29 13:55:48;;;;;;;3.00;0.90;;;;;;;;;;5031067;28;20234;-86
2023/08/29 13:58:14;;;;;;;1.13;0.60;;;;;;;;;;4994815;28;20227;-88
2023/08/29 14:00:39;;;;;;;1.38;0.73;;;;;;;;;;5038181;28;20218;-86
2023/08/29 14:03:07;;;;;;;0.60;0.50;;;;;;;;;;5055235;28;20226;-86
2023/08/29 14:05:33;;;;;;;0.70;0.70;;;;;;;;;;5017884;28;20226;-86
2023/08/29 14:07:59;;;;;;;0.80;0.68;;;;;;;;;;5018287;28;20325;-89
2023/08/29 14:10:25;;;;;;;2.92;0.77;;;;;;;;;;5017817;28;20214;-86
2023/08/29 14:17:07;;;;;;;0.98;0.70;;;;;;;;;;5062577;28;20230;-85
2023/08/29 14:19:37;;;;;;;0.60;0.60;;;;;;;;;;5032469;28;20233;-85
2023/08/29 14:22:03;;;;;;;1.48;0.80;;;;;;;;;;5012737;28;20249;-86
2023/08/29 14:24:31;;;;;;;0.60;0.60;;;;;;;;;;5011057;28;20688;-86
2023/08/29 14:26:56;;;;;;;0.60;0.60;;;;;;;;;;5020860;28;20234;-87
2023/08/29 14:29:22;;;;;;;0.63;0.60;;;;;;;;;;5027427;28;20219;-86
2023/08/29 14:31:51;;;;;;;2.03;0.60;;;;;;;;;;5017766;28;20229;-86
2023/08/29 14:34:17;;;;;;;1.38;0.52;;;;;;;;;;5039330;28;20298;-85
2023/08/29 14:36:45;;;;;;;2.50;0.70;;;;;;;;;;5042730;28;20234;-87
2023/08/29 14:39:13;;;;;;;0.70;0.70;;;;;;;;;;5016755;28;20214;-86
2023/08/29 14:41:44;;;;;;;1.33;0.80;;;;;;;;;;5029667;28;20327;-85
2023/08/29 14:44:12;;;;;;;1.55;0.63;;;;;;;;;;5035246;28;20228;-84
2023/08/29 14:46:41;;;;;;;0.68;0.57;;;;;;;;;;5026365;28;20225;-84
2023/08/29 14:49:07;;;;;;;1.27;0.60;;;;;;;;;;5023898;28;20267;-86
2023/08/29 14:51:32;;;;;;;0.68;0.60;;;;;;;;;;5039387;28;20219;-87
2023/08/29 14:54:02;;;;;;;0.68;0.60;;;;;;;;;;5035174;28;20263;-86
2023/08/29 14:56:32;;;;;;;0.93;0.70;;;;;;;;;;5005455;28;20223;-87